Tropical Cyclones
[Index]
Main Index Home Page Stock Weather Photos Extreme Storms Discussion Storm News and Storm Chasing Reports Tropical Cyclones / Hurricanes / Typhoons Weather Data and Links Wild Fires / Bushfires Weather Observation Techniques Weather Picture Catalogue Tornado Pictures and Reports Stock Video Footage and DVDs for sale
Season 2007-2008 Tropical Cyclone 200824 Track Map
Season 2007-2008 Summaries: [BoM-AU] [JTWC-AU] [JTWC-SIO] [JTWC-SPAC] [JTWC-SH]
<<- Previous TC | JTWC 2007-2008 Season | Next TC ->>

click for intensity scale information  Lat/long Grid: Show Hide

 Date Labels: Show Hide

Joint Typhoon Warning Centre Cyclone Data

Name: 200824

20 Mar 2008 00:00 UTC to 26 Mar 2008 00:00 UTC

    date/time    lat    long     hPa   cat  kts
2008-03-20 00   17.4   163.4    1004         25          
2008-03-20 06   18.0   163.5    1000         30          
2008-03-20 12   18.7   163.6    1000         30          
2008-03-20 18   19.4   163.8     996         35          
2008-03-21 00   20.1   163.9     996         35          
2008-03-21 06   20.7   163.9     996         35          
2008-03-21 12   21.2   163.8     996         35          
2008-03-21 18   21.7   163.6    1000         30          
2008-03-22 00   22.0   163.2    1004         25          
2008-03-22 06   22.0   162.7    1004         25          
2008-03-22 12   21.8   162.3    1004         25          
2008-03-22 18   21.4   162.0    1007         20          
2008-03-23 00   21.2   161.6    1007         20          
2008-03-23 06   20.7   161.1    1007         20          
2008-03-23 12   20.0   160.5    1007         20          
2008-03-23 18   19.6   159.8    1007         20          
2008-03-24 00   19.3   159.1    1007         20          
2008-03-24 06   19.1   158.6    1007         20          
2008-03-24 12   19.0   158.1    1007         20          
2008-03-24 18   19.0   157.6    1007         20          
2008-03-25 00   19.1   157.5    1007         20          
2008-03-25 06   19.3   157.5    1007         20          
2008-03-25 12   18.8   158.0    1007         20          
2008-03-25 18   18.4   158.4    1007         20          
2008-03-26 00   18.1   158.6    1007         20          
Winds are 1-min average.

Tropical cyclone tracks developed by Michael Bath using data from the Joint Typhoon Warning Centre Best Tracks and Google Maps.


[Australian Severe Weather index] [Copyright Notice] [Email Contacts] [Search This Site] [Privacy Policy]
Document: tropical_cyclone_200824.htm Updated: 28 June 2017